Time,TemperatureF,DewpointF,PressureIn,WindDirection,WindDirectionDegrees,WindSpeedMPH,WindSpeedGustMPH,Humidity,HourlyPrecipIn,Conditions,Clouds,dailyrainin,SoftwareType,DateUTC
2013-09-02 00:14:00,77.0,75.0,29.90,NNE,25,0.0,2.0,94,0.00,,,0.00,,2013-09-02 04:14:00,
2013-09-02 00:54:00,77.0,75.0,29.91,SW,214,0.0,0.0,95,0.00,,,0.00,,2013-09-02 04:54:00,
2013-09-02 01:13:00,77.0,75.0,29.91,SW,214,0.0,0.0,95,0.00,,,0.00,,2013-09-02 05:13:00,
2013-09-02 01:23:00,77.0,75.0,29.91,ESE,107,0.0,0.0,95,0.00,,,0.00,,2013-09-02 05:23:00,
2013-09-02 01:52:00,76.0,75.0,29.90,ESE,113,0.0,1.0,96,0.00,,,0.00,,2013-09-02 05:52:00,
2013-09-02 02:12:00,76.0,75.0,29.90,ENE,65,0.0,1.0,96,0.00,,,0.00,,2013-09-02 06:12:00,
2013-09-02 02:22:00,76.0,75.0,29.89,ENE,67,0.0,0.0,96,0.00,,,0.00,,2013-09-02 06:22:00,
2013-09-02 02:43:00,76.0,75.0,29.89,ENE,67,0.0,0.0,97,0.00,,,0.00,,2013-09-02 06:43:00,
2013-09-02 02:52:00,76.0,75.0,29.89,ENE,67,0.0,0.0,97,0.00,,,0.00,,2013-09-02 06:52:00,
2013-09-02 03:11:00,76.0,75.0,29.89,SW,219,0.0,0.0,97,0.00,,,0.00,,2013-09-02 07:11:00,
2013-09-02 03:21:00,76.0,75.0,29.89,SW,219,0.0,0.0,97,0.00,,,0.00,,2013-09-02 07:21:00,
2013-09-02 03:52:00,76.0,75.0,29.88,SW,219,0.0,1.0,97,0.00,,,0.00,,2013-09-02 07:52:00,
2013-09-02 04:11:00,76.0,75.0,29.88,SW,219,0.0,1.0,97,0.00,,,0.00,,2013-09-02 08:11:00,
2013-09-02 04:22:00,76.0,75.0,29.88,SW,219,0.0,1.0,97,0.00,,,0.00,,2013-09-02 08:22:00,
2013-09-02 04:52:00,75.0,74.0,29.88,SW,219,0.0,0.0,97,0.00,,,0.00,,2013-09-02 08:52:00,
2013-09-02 05:22:00,75.0,74.0,29.88,South,186,0.0,1.0,97,0.00,,,0.00,,2013-09-02 09:22:00,
2013-09-02 05:53:00,75.0,74.0,29.88,SSW,208,0.0,1.0,97,0.00,,,0.00,,2013-09-02 09:53:00,
2013-09-02 06:23:00,74.0,73.0,29.88,SSE,167,0.0,0.0,97,0.00,,,0.00,,2013-09-02 10:23:00,
2013-09-02 06:53:00,74.0,73.0,29.89,WSW,240,0.0,2.0,98,0.00,,,0.00,,2013-09-02 10:53:00,
2013-09-02 07:11:00,74.0,73.0,29.90,West,264,0.0,1.0,98,0.00,,,0.00,,2013-09-02 11:11:00,
2013-09-02 07:22:00,74.0,73.0,29.90,West,264,0.0,0.0,97,0.00,,,0.00,,2013-09-02 11:22:00,
2013-09-02 07:52:00,74.0,73.0,29.91,WSW,238,0.0,5.0,98,0.00,,,0.00,,2013-09-02 11:52:00,
2013-09-02 08:12:00,75.0,74.0,29.91,WSW,251,1.0,3.0,98,0.00,,,0.00,,2013-09-02 12:12:00,
2013-09-02 08:21:00,75.0,74.0,29.92,West,269,0.0,1.0,97,0.00,,,0.00,,2013-09-02 12:21:00,
2013-09-02 08:52:00,76.0,75.0,29.93,SSW,207,0.0,5.0,96,0.00,,,0.00,,2013-09-02 12:52:00,
2013-09-02 09:11:00,77.0,75.0,29.93,WSW,240,2.0,7.0,93,0.00,,,0.00,,2013-09-02 13:11:00,
2013-09-02 09:22:00,78.0,75.0,29.93,SW,215,2.0,9.0,91,0.00,,,0.00,,2013-09-02 13:22:00,
2013-09-02 09:52:00,80.0,76.0,29.94,SW,228,1.0,5.0,88,0.00,,,0.00,,2013-09-02 13:52:00,
2013-09-02 10:11:00,81.0,76.0,29.94,SW,214,2.0,8.0,86,0.00,,,0.00,,2013-09-02 14:11:00,
2013-09-02 10:22:00,82.0,77.0,29.94,WSW,257,0.0,4.0,85,0.00,,,0.00,,2013-09-02 14:22:00,
2013-09-02 10:52:00,83.0,77.0,29.95,SSE,148,1.0,5.0,82,0.00,,,0.00,,2013-09-02 14:52:00,
2013-09-02 11:12:00,83.0,77.0,29.95,WSW,239,2.0,5.0,83,0.00,,,0.00,,2013-09-02 15:12:00,
2013-09-02 11:23:00,85.0,78.0,29.95,SSW,201,1.0,4.0,79,0.00,,,0.00,,2013-09-02 15:23:00,
2013-09-02 11:55:00,86.0,79.0,29.94,WSW,240,0.0,3.0,79,0.00,,,0.00,,2013-09-02 15:55:00,
2013-09-02 12:24:00,88.0,79.0,29.94,SW,232,2.0,3.0,75,0.00,,,0.00,,2013-09-02 16:24:00,
2013-09-02 12:53:00,86.0,78.0,29.93,WSW,243,0.0,8.0,77,0.00,,,0.00,,2013-09-02 16:53:00,
2013-09-02 13:13:00,88.0,79.0,29.93,West,269,1.0,5.0,74,0.00,,,0.00,,2013-09-02 17:13:00,
2013-09-02 13:23:00,89.0,79.0,29.92,SSW,204,2.0,5.0,72,0.00,,,0.00,,2013-09-02 17:23:00,
2013-09-02 13:52:00,90.0,78.0,29.91,WSW,243,3.0,6.0,68,0.00,,,0.00,,2013-09-02 17:52:00,
2013-09-02 14:13:00,90.0,79.0,29.91,SW,226,0.0,3.0,70,0.00,,,0.00,,2013-09-02 18:13:00,
2013-09-02 14:22:00,91.0,79.0,29.90,SE,136,1.0,4.0,68,0.00,,,0.00,,2013-09-02 18:22:00,
2013-09-02 14:52:00,92.0,79.0,29.89,West,259,1.0,4.0,65,0.00,,,0.00,,2013-09-02 18:52:00,
2013-09-02 15:12:00,89.0,77.0,29.88,NNW,338,2.0,6.0,69,0.00,,,0.00,,2013-09-02 19:12:00,
2013-09-02 16:12:00,86.0,82.0,29.85,NNE,20,0.0,1.0,89,0.24,,,0.24,,2013-09-02 20:12:00,
2013-09-02 16:22:00,87.0,81.0,29.84,East,88,0.0,2.0,83,0.00,,,0.24,,2013-09-02 20:22:00,
2013-09-02 16:52:00,85.0,81.0,29.84,SSW,212,0.0,0.0,88,0.00,,,0.24,,2013-09-02 20:52:00,
2013-09-02 18:24:00,79.0,76.0,29.85,ESE,110,0.0,2.0,91,0.00,,,0.28,,2013-09-02 22:24:00,
2013-09-02 19:22:00,76.0,73.0,29.86,West,264,1.0,4.0,90,0.00,,,0.28,,2013-09-02 23:22:00,
2013-09-02 19:53:00,75.0,73.0,29.85,WNW,287,0.0,0.0,93,0.00,,,0.28,,2013-09-02 23:53:00,
2013-09-02 20:12:00,75.0,73.0,29.84,WNW,287,0.0,0.0,94,0.00,,,0.28,,2013-09-03 00:12:00,
2013-09-02 20:22:00,75.0,73.0,29.85,WNW,287,0.0,0.0,95,0.00,,,0.28,,2013-09-03 00:22:00,
2013-09-02 20:42:00,74.0,72.0,29.86,WNW,287,0.0,0.0,95,0.00,,,0.28,,2013-09-03 00:42:00,
2013-09-02 20:52:00,74.0,73.0,29.86,WNW,287,0.0,0.0,96,0.00,,,0.28,,2013-09-03 00:52:00,
2013-09-02 21:11:00,74.0,73.0,29.87,WNW,287,0.0,0.0,96,0.00,,,0.28,,2013-09-03 01:11:00,
2013-09-02 21:22:00,74.0,73.0,29.87,WNW,287,0.0,0.0,96,0.00,,,0.28,,2013-09-03 01:22:00,
2013-09-02 21:42:00,74.0,73.0,29.88,WNW,287,0.0,0.0,97,0.00,,,0.28,,2013-09-03 01:42:00,
2013-09-02 21:52:00,74.0,73.0,29.88,WNW,287,0.0,0.0,97,0.00,,,0.28,,2013-09-03 01:52:00,
2013-09-02 22:12:00,73.0,72.0,29.89,WNW,287,0.0,0.0,97,0.00,,,0.28,,2013-09-03 02:12:00,
2013-09-02 22:21:00,73.0,72.0,29.89,WNW,287,0.0,0.0,97,0.00,,,0.28,,2013-09-03 02:21:00,
2013-09-02 22:42:00,73.0,72.0,29.90,WNW,287,0.0,0.0,97,0.00,,,0.28,,2013-09-03 02:42:00,
2013-09-02 22:52:00,72.0,71.0,29.91,WNW,287,0.0,0.0,97,0.00,,,0.28,,2013-09-03 02:52:00,
2013-09-02 23:23:00,72.0,71.0,29.91,NE,50,0.0,0.0,97,0.00,,,0.28,,2013-09-03 03:23:00,
2013-09-02 23:55:00,72.0,71.0,29.91,NE,50,0.0,0.0,96,0.00,,,0.28,,2013-09-03 03:55:00,